x

West Orca Bay - 8nm Nw Of Hinchinbrook Is , Ak (46060) Wave Buoy

12:50am - Wed 24th Aug 2016 All times are AKDT. -8 hours from GMT.

  • Sig Wave height 2.3ft
  • Swell Direction
  • Peak Period 4s
  • Average Period 4s
  • Wind
    20mph, 25mph gusts
  • Sea Temp 56°f
  • Air Temp 56°f
  • Sea Pressure 1027.2mb
  • West Orca Bay - 8nm Nw Of Hinchinbrook  Is , Ak
  • West Orca Bay - 8nm Nw Of Hinchinbrook  Is , Ak

More Historic Weather Station data

Upgrade to MSW Pro to gain access to the past 30 days of data for over 8000 Wavebouys and Weather Stations around the globe.

Join Pro

Comparision Forecast

View Surf forecast
   
Wed 08/24 12:50am 2.5ft 4s 4s 20 25 mph 1027.2mb 56f 56f
Tue 08/23 11:50pm 2.5ft 4s 4s 22 27 mph 1027.1mb 56f 57f
10:50pm 2.5ft 4s 4s 22 27 mph 1026.6mb 56f 57f
9:50pm 2.5ft 4s 4s 25 29 mph 1026mb 56f 56f
8:50pm 3ft 4s 4s 25 29 mph 1025.1mb 56f 56f
7:50pm 3ft 4s 4s 25 31 mph 1024.3mb 56f 56f
6:50pm 2.5ft 4s 4s 27 34 mph 1023.6mb 56f 56f
5:50pm 3.5ft 4s 4s 22 27 mph 1023.1mb 56f 56f
4:50pm 3.5ft 5s 4s 22 25 mph 1022.6mb 56f 56f
3:50pm 3ft 4s 4s 22 27 mph 1022mb 56f 56f
2:50pm 3.5ft 4s 4s 22 27 mph 1021.2mb 56f 56f
1:50pm 3.5ft 5s 4s 22 29 mph 1020.5mb 56f 56f
12:50pm 3.5ft 5s 4s 25 29 mph 1019.7mb 56f 56f
11:50am 3.5ft 5s 4s 25 29 mph 1018.8mb 56f 56f
10:50am 3.5ft 5s 4s 25 31 mph 1017.8mb 56f 56f
9:50am 3.5ft 5s 4s 27 34 mph 1016.7mb 56f 55f
8:50am 3.5ft 4s 4s 25 29 mph 1015.7mb 56f 55f
7:50am 3.5ft 5s 4s 25 31 mph 1014.6mb 56f 55f
6:50am 3.5ft 4s 4s 20 27 mph 1013.9mb 56f 56f
5:50am 3.5ft 4s 4s 25 29 mph 1012.8mb 56f 56f
4:50am 3.5ft 4s 4s 25 31 mph 1012.2mb 56f 55f
3:50am 4ft 4s 4s 22 29 mph 1012mb 56f 56f
2:50am 4.5ft 4s 4s 25 29 mph 1011.9mb 57f 56f
1:50am 4.5ft 4s 4s 25 29 mph 1011.7mb 57f 56f
12:50am 4.5ft 4s 4s 29 36 mph 1011mb 57f 56f
Mon 08/22 11:50pm 4ft 4s 4s 29 36 mph 1010.7mb 57f 55f
10:50pm 3.5ft 4s 4s 29 36 mph 1010.1mb 57f 56f
9:50pm 4ft 5s 4s 25 31 mph 1010mb 57f 56f
8:50pm 3.5ft 5s 4s 25 29 mph 1009.3mb 57f 55f
7:50pm 3.5ft 5s 5s 20 25 mph 1008.8mb 57f 55f
6:50pm 4.5ft 5s 4s 13 22 mph 1009.2mb 57f 55f
5:50pm 5.5ft 6s 4s 34 40 mph 1007.2mb 57f 54f
4:50pm 6ft 5s 5s 38 45 mph 1006.3mb 57f 55f
3:50pm 6ft 5s 5s 34 40 mph 1006.7mb 57f 56f
2:50pm 6ft 5s 5s 36 45 mph 1006mb 57f 56f
1:50pm 6ft 5s 5s 34 40 mph 1006.6mb 57f 56f
12:50pm 6ft 6s 5s 38 45 mph 1006.5mb 57f 55f
11:50am 5ft 5s 4s 34 40 mph 1007mb 57f 55f
10:50am 4.5ft 5s 4s 29 36 mph 1007.4mb 58f 54f
9:50am 3.5ft 5s 4s 29 38 mph 1007.6mb 58f 55f
8:50am 3.5ft 4s 4s 27 34 mph 1008.2mb 58f 55f
7:50am 3ft 4s 4s 27 31 mph 1008.4mb 58f 55f
6:50am 2.5ft 4s 4s 25 31 mph 1008.5mb 58f 55f
5:50am 2.5ft 4s 4s 18 25 mph 1008.8mb 58f 56f
4:50am 2.5ft 4s 4s 20 25 mph 1008.8mb 58f 55f
3:50am 2ft 4s 4s 22 25 mph 1009.1mb 59f 55f
2:50am 2ft 3s 4s 18 22 mph 1009.3mb 59f 55f
1:50am 2ft 3s 3s 13 16 mph 1009.6mb 59f 56f
12:50am 1.6ft 3s 3s 18 20 mph 1009.9mb 58f 55f
Sun 08/21 11:50pm 1.3ft 3s 3s 13 16 mph 1010mb 58f 56f
10:50pm 1.3ft 3s 3s 9 11 mph 1010.2mb 58f 55f
9:50pm 1.3ft 3s 3s 11 13 mph 1010.2mb 58f 56f
8:50pm 1.6ft 8s 4s 16 20 mph 1010.2mb 58f 55f
6:50pm 2ft 3s 4s 11 13 mph 1010.2mb 58f 57f
5:50pm 2.5ft 3s 4s 13 18 mph 1010.4mb 58f 56f
4:50pm 2.5ft 4s 3s 16 20 mph 1010.6mb 58f 56f
3:50pm 2ft 4s 3s 16 18 mph 1010.8mb 58f 56f
2:50pm 1.6ft 3s 4s 4 7 mph 1011.6mb 58f 56f
1:50pm 1.6ft 3s 3s 13 16 mph 1011.7mb 58f 57f
12:50pm 1.6ft 3s 4s 9 11 mph 1012.1mb 58f 57f
11:50am 1.3ft 3s 3s 13 16 mph 1012.1mb 58f 56f
10:50am 1.6ft 3s 3s 7 9 mph 1012.5mb 58f 57f
9:50am 1.6ft 3s 3s 13 16 mph 1012.7mb 58f 57f
8:50am 1ft 8s 4s 16 18 mph 1012.6mb 58f 57f
7:50am 1.3ft 8s 3s 11 13 mph 1012.8mb 58f 56f
6:50am 1.3ft 2s 3s 13 16 mph 1012.8mb 58f 56f
5:50am 1ft 8s 5s 13
mph
1013.1mb 58f 56f
4:50am 1ft 8s 5s 7 9 mph 1013.5mb 58f 56f
3:50am 1ft 8s 5s 7 9 mph 1013.9mb 59f 56f
2:50am 0.7ft  -  5s 7 9 mph 1014.4mb 59f 57f
1:50am 0.7ft  -  5s 7
mph
1014.6mb 59f 56f
12:50am 0.7ft  -  4s 4 7 mph 1015.2mb 59f 57f
Sat 08/20 11:50pm 1ft 8s 3s 11 13 mph 1015.5mb 59f 57f
10:50pm 0.7ft  -  5s 11
mph
1015.5mb 59f 57f
9:50pm 0.7ft  -  6s 7
mph
1015.8mb 60f 57f
8:50pm 1ft 8s 7s 2 4 mph 1015.9mb 59f 57f
7:50pm 1ft 7s 7s 2
mph
1016.3mb 61f 58f
6:50pm 1ft 8s 7s 2 4 mph 1016.6mb 61f 58f
5:50pm 1ft 8s 6s 2
mph
1016.7mb 61f 58f
4:50pm 1ft 8s 6s 2 4 mph 1017.1mb 61f 57f
3:50pm 1ft 8s 7s 2
mph
1017.6mb 60f 56f
2:50pm 1ft 8s 7s  -  mph 1018mb 60f 57f
1:50pm 1ft 8s 6s 2
mph
1018.6mb 59f 55f
12:50pm 1ft 8s 6s 2 4 mph 1019mb 59f 55f
11:50am 1ft 8s 6s 2 4 mph 1019.3mb 58f 55f
10:50am 1ft 6s 6s 4
mph
1019.5mb 58f 55f